Time;durP1;ratioP1;P1;durP2;ratioP2;P2;SDS_P1;SDS_P2;PMS_P1;PMS_P2;Temp;Humidity;BMP_temperature;BMP_pressure;BME280_temperature;BME280_humidity;BME280_pressure;Samples;Min_cycle;Max_cycle;Signal;HPM_P1;HPM_P2
2023/09/24 00:00:59;;;;;;;7.30;2.28;;;10.90;92.50;;;;;;5051698;28;20060;-47
2023/09/24 00:03:26;;;;;;;4.40;2.50;;;10.90;92.50;;;;;;5053140;28;20029;-45
2023/09/24 00:05:59;;;;;;;4.57;1.92;;;10.90;92.40;;;;;;5042799;28;20024;-47
2023/09/24 00:08:28;;;;;;;6.25;3.80;;;10.90;92.50;;;;;;5072403;28;20548;-46
2023/09/24 00:10:56;;;;;;;5.57;2.50;;;10.80;92.50;;;;;;5072666;28;20036;-46
2023/09/24 00:13:23;;;;;;;9.85;2.78;;;10.80;92.50;;;;;;5057846;28;20051;-47
2023/09/24 00:15:51;;;;;;;7.90;2.33;;;10.80;92.40;;;;;;5051598;28;20029;-46
2023/09/24 00:18:20;;;;;;;5.18;3.00;;;10.80;92.50;;;;;;5062477;28;20048;-47
2023/09/24 00:20:46;;;;;;;7.73;2.00;;;10.80;92.50;;;;;;5063883;28;20033;-45
2023/09/24 00:23:17;;;;;;;6.38;2.35;;;10.70;92.50;;;;;;5055497;28;20386;-46
2023/09/24 00:25:44;;;;;;;5.88;2.28;;;10.70;92.50;;;;;;5060547;28;20036;-45
2023/09/24 00:28:11;;;;;;;4.97;2.00;;;10.70;92.50;;;;;;5069187;28;20025;-46
2023/09/24 00:30:41;;;;;;;6.25;2.78;;;10.70;92.50;;;;;;5056304;28;20028;-45
2023/09/24 00:33:11;;;;;;;6.93;2.22;;;10.70;92.50;;;;;;5056461;28;20349;-46
2023/09/24 00:35:39;;;;;;;3.38;1.60;;;10.70;92.50;;;;;;5038922;28;20605;-46
2023/09/24 00:38:08;;;;;;;4.25;1.98;;;10.70;92.50;;;;;;5056193;28;20122;-47
2023/09/24 00:40:34;;;;;;;5.78;2.15;;;10.60;92.50;;;;;;5055247;28;20037;-47
2023/09/24 00:43:02;;;;;;;6.28;1.80;;;10.60;92.50;;;;;;5056066;28;20130;-46
2023/09/24 00:45:29;;;;;;;6.72;2.17;;;10.60;92.40;;;;;;5056473;28;20051;-47
2023/09/24 00:47:57;;;;;;;4.53;2.13;;;10.60;92.40;;;;;;5064769;28;20394;-45
2023/09/24 00:50:33;;;;;;;3.75;1.73;;;10.60;92.40;;;;;;5059137;28;20032;-47
2023/09/24 00:52:59;;;;;;;5.85;2.20;;;10.50;92.50;;;;;;5056057;28;20033;-45
2023/09/24 00:55:26;;;;;;;8.18;2.53;;;10.50;92.50;;;;;;5056056;28;20021;-46
2023/09/24 00:57:54;;;;;;;3.72;1.98;;;10.50;92.60;;;;;;5074758;28;20044;-46
2023/09/24 01:00:25;;;;;;;4.00;2.00;;;10.50;92.50;;;;;;5075749;28;20345;-45
2023/09/24 01:02:54;;;;;;;3.88;1.88;;;10.60;92.60;;;;;;5071689;28;20037;-48
2023/09/24 01:05:22;;;;;;;7.33;1.80;;;10.60;92.60;;;;;;5055813;28;20029;-46
2023/09/24 01:07:48;;;;;;;4.93;1.75;;;10.60;92.50;;;;;;5056088;28;20303;-49
2023/09/24 01:10:18;;;;;;;3.88;1.83;;;10.60;92.60;;;;;;5055430;28;20118;-47
2023/09/24 01:13:04;;;;;;;4.70;2.35;;;10.60;92.50;;;;;;5075296;28;20433;-45
2023/09/24 01:15:34;;;;;;;6.85;2.10;;;10.50;92.60;;;;;;5064040;28;20096;-46
2023/09/24 01:18:03;;;;;;;6.25;2.03;;;10.50;92.60;;;;;;5055587;28;20105;-46
2023/09/24 01:20:32;;;;;;;5.03;2.08;;;10.60;92.50;;;;;;5072906;28;20032;-46
2023/09/24 01:23:03;;;;;;;6.63;2.40;;;10.60;92.60;;;;;;5075648;28;20307;-46
2023/09/24 01:25:36;;;;;;;4.80;2.13;;;10.50;92.60;;;;;;5072641;28;20031;-46
2023/09/24 01:28:07;;;;;;;5.10;2.17;;;10.50;92.70;;;;;;5054513;28;20056;-47
2023/09/24 01:30:35;;;;;;;4.47;1.88;;;10.50;92.70;;;;;;5055535;28;20056;-45
2023/09/24 01:33:02;;;;;;;3.53;1.90;;;10.60;92.70;;;;;;5054305;28;20043;-46
2023/09/24 01:35:29;;;;;;;5.30;2.80;;;10.60;92.80;;;;;;5054202;28;20036;-46
2023/09/24 01:37:59;;;;;;;4.55;2.28;;;10.60;92.80;;;;;;5073675;28;20044;-47
2023/09/24 01:40:32;;;;;;;6.32;2.55;;;10.70;92.80;;;;;;5070401;28;20059;-47
2023/09/24 01:43:05;;;;;;;8.88;2.45;;;10.60;92.80;;;;;;5093175;28;20035;-46
2023/09/24 01:45:40;;;;;;;5.47;2.53;;;10.70;92.90;;;;;;5093837;28;20028;-45
2023/09/24 01:48:10;;;;;;;5.30;2.33;;;10.70;92.90;;;;;;5093593;28;20032;-46
2023/09/24 01:50:41;;;;;;;;;;;10.70;92.90;;;;;;5095514;28;20020;-47
2023/09/24 01:53:09;;;;;;;5.90;3.50;;;10.80;92.90;;;;;;5095164;28;19904;-45
2023/09/24 01:55:40;;;;;;;6.22;2.30;;;10.80;92.90;;;;;;5092092;28;20089;-45
2023/09/24 01:58:08;;;;;;;6.35;2.42;;;10.80;92.80;;;;;;5074229;28;20442;-46
2023/09/24 02:00:33;;;;;;;5.50;2.58;;;10.70;92.80;;;;;;5078444;28;20111;-47
2023/09/24 02:03:03;;;;;;;6.75;2.28;;;10.80;92.90;;;;;;5057086;28;20121;-45
2023/09/24 02:05:48;;;;;;;6.18;2.10;;;10.80;92.90;;;;;;5074894;28;20035;-46
2023/09/24 02:08:15;;;;;;;6.55;2.17;;;10.90;92.90;;;;;;5080204;28;20124;-45
2023/09/24 02:10:43;;;;;;;9.23;2.80;;;10.90;92.90;;;;;;5056870;28;20458;-46
2023/09/24 02:13:12;;;;;;;5.68;2.55;;;10.90;92.90;;;;;;5090480;28;20080;-45
2023/09/24 02:15:43;;;;;;;7.50;2.70;;;10.90;93.00;;;;;;5076553;28;20170;-46
2023/09/24 02:18:09;;;;;;;;;;;10.90;93.00;;;;;;5058335;28;20039;-45
2023/09/24 02:20:41;;;;;;;6.45;2.28;;;10.90;93.00;;;;;;5076251;28;19920;-47
2023/09/24 02:23:09;;;;;;;4.57;2.28;;;10.90;93.00;;;;;;5076656;28;20077;-46
2023/09/24 02:25:37;;;;;;;7.25;2.67;;;10.90;93.10;;;;;;5093664;28;20063;-48
2023/09/24 02:28:04;;;;;;;8.52;2.58;;;10.90;93.20;;;;;;5093103;28;20040;-46
2023/09/24 02:30:31;;;;;;;6.32;2.33;;;11.00;93.20;;;;;;5079863;28;20064;-45
2023/09/24 02:33:12;;;;;;;10.75;4.35;;;10.90;93.00;;;;;;5073980;28;20048;-45
2023/09/24 02:35:39;;;;;;;5.75;2.72;;;11.00;93.20;;;;;;5074751;28;20032;-47
2023/09/24 02:38:10;;;;;;;5.10;3.28;;;11.00;93.20;;;;;;5074348;28;20050;-46
2023/09/24 02:40:35;;;;;;;6.68;2.55;;;11.00;93.20;;;;;;5073645;28;20345;-48
2023/09/24 02:43:12;;;;;;;5.43;2.67;;;11.00;93.20;;;;;;5084001;28;20035;-45
2023/09/24 02:45:45;;;;;;;6.72;2.65;;;11.00;93.20;;;;;;5077201;28;20085;-45
2023/09/24 02:48:12;;;;;;;6.13;2.75;;;11.00;93.20;;;;;;5074170;28;20036;-49
2023/09/24 02:50:42;;;;;;;5.95;2.55;;;10.90;93.10;;;;;;5088713;28;20424;-47
2023/09/24 02:53:09;;;;;;;7.97;2.90;;;10.90;93.10;;;;;;5075994;28;20028;-46
2023/09/24 02:55:37;;;;;;;10.43;3.15;;;10.90;93.20;;;;;;5071894;28;20055;-47
2023/09/24 02:58:05;;;;;;;5.63;2.63;;;10.90;93.20;;;;;;5082481;28;20021;-51
2023/09/24 03:00:36;;;;;;;6.57;3.15;;;10.90;93.20;;;;;;5090919;28;20044;-46
2023/09/24 03:03:04;;;;;;;7.18;3.17;;;10.90;93.30;;;;;;5056400;28;20135;-48
2023/09/24 03:05:32;;;;;;;6.88;3.55;;;10.90;93.30;;;;;;5056158;28;20111;-46
2023/09/24 03:08:02;;;;;;;8.75;2.80;;;10.90;93.30;;;;;;5062541;28;20024;-47
2023/09/24 03:10:34;;;;;;;8.80;4.20;;;10.90;93.30;;;;;;5076500;28;20029;-46
2023/09/24 03:13:02;;;;;;;7.65;2.97;;;10.90;93.30;;;;;;5037177;28;20091;-48
2023/09/24 03:15:29;;;;;;;5.55;2.70;;;10.90;93.40;;;;;;5093227;28;20115;-47
2023/09/24 03:17:56;;;;;;;6.57;3.58;;;10.90;93.50;;;;;;5093376;28;20464;-45
2023/09/24 03:20:25;;;;;;;8.85;3.28;;;10.90;93.50;;;;;;5093033;28;20059;-47
2023/09/24 03:22:54;;;;;;;6.82;3.15;;;10.90;93.50;;;;;;5074647;28;20141;-46
2023/09/24 03:25:23;;;;;;;7.07;2.70;;;10.80;93.40;;;;;;5039059;28;20477;-46
2023/09/24 03:27:51;;;;;;;6.35;3.13;;;10.80;93.50;;;;;;5075776;28;20028;-47
2023/09/24 03:30:17;;;;;;;6.30;2.72;;;10.70;93.40;;;;;;5091322;28;20043;-48
2023/09/24 03:32:46;;;;;;;6.50;2.65;;;10.70;93.30;;;;;;5055581;28;20448;-46
2023/09/24 03:35:14;;;;;;;7.45;2.92;;;10.70;93.30;;;;;;5055385;28;20132;-46
2023/09/24 03:37:46;;;;;;;6.43;3.47;;;10.70;93.30;;;;;;5073751;28;20351;-47
2023/09/24 03:40:25;;;;;;;10.13;3.47;;;10.60;93.30;;;;;;5055721;28;20094;-45
2023/09/24 03:42:51;;;;;;;4.22;2.80;;;10.60;93.30;;;;;;5064057;28;20461;-47
2023/09/24 03:45:19;;;;;;;6.88;2.90;;;10.60;93.30;;;;;;5051232;28;20045;-50
2023/09/24 03:47:51;;;;;;;12.60;4.07;;;10.60;93.30;;;;;;5051777;28;20409;-46
2023/09/24 03:50:17;;;;;;;5.63;3.92;;;10.50;93.30;;;;;;5046259;28;20029;-48
2023/09/24 03:52:50;;;;;;;6.90;3.97;;;10.50;93.20;;;;;;5047736;28;20425;-46
2023/09/24 03:55:18;;;;;;;7.90;3.83;;;10.50;93.30;;;;;;5035391;28;20106;-47
2023/09/24 03:57:47;;;;;;;7.83;4.13;;;10.50;93.20;;;;;;5052794;28;20431;-47
2023/09/24 04:00:25;;;;;;;12.00;4.68;;;10.40;93.20;;;;;;5046799;28;20071;-46
2023/09/24 04:02:54;;;;;;;9.05;4.28;;;10.40;93.20;;;;;;5031487;28;20040;-46
2023/09/24 04:05:24;;;;;;;7.07;4.05;;;10.40;93.20;;;;;;5033140;28;20505;-50
2023/09/24 04:07:53;;;;;;;6.00;3.92;;;10.40;93.20;;;;;;5032520;28;20026;-47
2023/09/24 04:10:27;;;;;;;8.63;4.25;;;10.40;93.20;;;;;;5014609;28;20378;-47
2023/09/24 04:12:54;;;;;;;8.25;4.43;;;10.40;93.20;;;;;;5032678;28;20348;-46
2023/09/24 04:15:27;;;;;;;6.45;3.85;;;10.40;93.20;;;;;;5048863;28;20405;-47
2023/09/24 04:18:14;;;;;;;5.78;4.07;;;10.40;93.20;;;;;;5052926;28;20037;-48
2023/09/24 04:20:41;;;;;;;7.25;4.15;;;10.30;93.10;;;;;;5047805;28;20033;-48
2023/09/24 04:23:09;;;;;;;9.77;4.93;;;10.30;93.20;;;;;;5067820;28;20052;-46
2023/09/24 04:25:37;;;;;;;6.28;4.97;;;10.20;93.20;;;;;;5046099;28;20051;-51
2023/09/24 04:28:13;;;;;;;9.23;4.80;;;10.30;93.20;;;;;;5031836;28;20447;-49
2023/09/24 04:30:41;;;;;;;7.07;5.50;;;10.30;93.20;;;;;;5043944;28;20045;-48
2023/09/24 04:33:08;;;;;;;10.93;5.63;;;10.30;93.30;;;;;;5032177;28;20032;-48
2023/09/24 04:35:35;;;;;;;9.38;5.50;;;10.20;93.40;;;;;;5031522;28;20399;-46
2023/09/24 04:38:01;;;;;;;11.68;5.85;;;10.30;93.30;;;;;;5032167;28;20060;-47
2023/09/24 04:40:27;;;;;;;9.82;5.05;;;10.30;93.40;;;;;;5074525;28;20079;-49
2023/09/24 04:42:55;;;;;;;6.75;4.55;;;10.30;93.40;;;;;;5071783;28;20021;-47
2023/09/24 04:45:23;;;;;;;8.80;5.82;;;10.30;93.50;;;;;;5085896;28;20441;-48
2023/09/24 04:47:49;;;;;;;6.47;4.93;;;10.30;93.50;;;;;;5092680;28;20028;-47
2023/09/24 04:50:16;;;;;;;8.00;5.00;;;10.30;93.50;;;;;;5068553;28;20031;-48
2023/09/24 04:52:44;;;;;;;8.52;5.50;;;10.30;93.50;;;;;;5072239;28;20028;-49
2023/09/24 04:55:16;;;;;;;9.40;5.93;;;10.30;93.60;;;;;;5070974;28;20543;-51
2023/09/24 04:57:49;;;;;;;7.88;4.93;;;10.30;93.50;;;;;;5072324;28;20030;-47
2023/09/24 05:00:16;;;;;;;7.40;4.88;;;10.30;93.50;;;;;;5082501;28;20047;-46
2023/09/24 05:02:43;;;;;;;8.90;5.22;;;10.30;93.60;;;;;;5091319;28;20047;-50
2023/09/24 05:05:10;;;;;;;7.55;4.88;;;10.40;93.70;;;;;;5092151;28;20078;-46
2023/09/24 05:07:42;;;;;;;9.55;4.93;;;10.30;93.60;;;;;;5088591;28;20491;-51
2023/09/24 05:10:13;;;;;;;11.30;5.18;;;10.30;93.60;;;;;;5067449;28;20035;-49
2023/09/24 05:12:43;;;;;;;10.70;6.45;;;10.30;93.60;;;;;;5095757;28;20553;-47
2023/09/24 05:15:09;;;;;;;8.25;5.07;;;10.30;93.60;;;;;;5095028;28;20119;-47
2023/09/24 05:17:36;;;;;;;6.43;4.93;;;10.30;93.60;;;;;;5086964;28;20115;-49
2023/09/24 05:20:07;;;;;;;7.32;5.68;;;10.20;93.50;;;;;;5075339;28;20063;-50
2023/09/24 05:22:33;;;;;;;7.15;5.47;;;10.30;93.60;;;;;;5087372;28;20028;-47
2023/09/24 05:25:02;;;;;;;6.93;5.10;;;10.20;93.60;;;;;;5095762;28;20020;-49
2023/09/24 05:27:29;;;;;;;7.78;5.30;;;10.20;93.60;;;;;;5092687;28;20074;-46
2023/09/24 05:29:58;;;;;;;8.13;4.90;;;10.20;93.60;;;;;;5079512;28;20109;-52
2023/09/24 05:32:27;;;;;;;7.37;4.90;;;10.20;93.60;;;;;;5077278;28;20027;-46
2023/09/24 05:34:54;;;;;;;6.95;5.22;;;10.20;93.60;;;;;;5086067;28;20290;-52
2023/09/24 05:37:23;;;;;;;7.35;5.82;;;10.20;93.80;;;;;;5074777;28;20342;-47
2023/09/24 05:39:49;;;;;;;7.07;5.22;;;10.30;93.80;;;;;;5060341;28;20078;-50
2023/09/24 05:42:16;;;;;;;7.55;5.47;;;10.30;93.80;;;;;;5075539;28;20032;-49
2023/09/24 05:44:43;;;;;;;9.65;5.57;;;10.20;93.70;;;;;;5075256;28;20017;-50
2023/09/24 05:47:11;;;;;;;9.15;6.20;;;10.30;93.80;;;;;;5059873;28;20033;-48
2023/09/24 05:49:39;;;;;;;10.23;5.70;;;10.30;93.80;;;;;;5074071;28;20488;-51
2023/09/24 05:52:06;;;;;;;7.40;5.65;;;10.30;93.90;;;;;;5082154;28;20036;-50
2023/09/24 05:54:36;;;;;;;9.02;5.82;;;10.30;93.90;;;;;;5094982;28;20461;-48
2023/09/24 05:57:04;;;;;;;7.90;5.80;;;10.40;94.00;;;;;;5095015;28;20035;-49
2023/09/24 05:59:34;;;;;;;9.98;5.97;;;10.40;94.10;;;;;;5094882;28;20024;-49
2023/09/24 06:02:00;;;;;;;11.13;6.32;;;10.40;94.00;;;;;;5094325;28;20032;-47
2023/09/24 06:04:30;;;;;;;7.78;5.60;;;10.50;94.10;;;;;;5094014;28;20058;-49
2023/09/24 06:06:58;;;;;;;7.78;6.18;;;10.50;94.10;;;;;;5093973;28;20036;-54
2023/09/24 06:09:30;;;;;;;8.48;6.47;;;10.60;94.10;;;;;;5080954;28;20421;-49
2023/09/24 06:11:58;;;;;;;8.45;6.38;;;10.60;94.00;;;;;;5057014;28;20127;-48
2023/09/24 06:14:26;;;;;;;7.80;6.38;;;10.60;94.20;;;;;;5075040;28;20344;-48
2023/09/24 06:16:53;;;;;;;7.25;5.72;;;10.60;94.30;;;;;;5069534;28;20071;-51
2023/09/24 06:19:22;;;;;;;8.45;6.78;;;10.70;94.30;;;;;;5094379;28;20066;-47
2023/09/24 06:21:51;;;;;;;7.47;6.45;;;10.70;94.30;;;;;;5090934;28;20056;-47
2023/09/24 06:24:20;;;;;;;6.85;5.97;;;10.80;94.40;;;;;;5063596;28;20039;-52
2023/09/24 06:26:47;;;;;;;10.35;6.75;;;10.80;94.50;;;;;;5081592;28;20444;-47
2023/09/24 06:29:16;;;;;;;8.38;6.55;;;10.90;94.50;;;;;;5056338;28;20024;-46
2023/09/24 06:31:47;;;;;;;8.40;6.13;;;10.90;94.50;;;;;;5067308;28;20118;-47
2023/09/24 06:34:14;;;;;;;8.45;6.10;;;11.00;94.60;;;;;;5092131;28;20055;-50
2023/09/24 06:36:41;;;;;;;8.32;6.35;;;11.00;94.70;;;;;;5073791;28;20078;-46
2023/09/24 06:39:08;;;;;;;10.00;6.88;;;11.10;94.60;;;;;;5073572;28;20436;-47
2023/09/24 06:41:35;;;;;;;9.02;5.97;;;11.10;94.60;;;;;;5083956;28;20020;-50
2023/09/24 06:44:03;;;;;;;6.68;5.25;;;11.20;94.70;;;;;;5093521;28;20036;-48
2023/09/24 06:46:31;;;;;;;6.82;6.13;;;11.20;94.70;;;;;;5093266;28;20028;-46
2023/09/24 06:49:00;;;;;;;12.43;6.30;;;11.30;94.80;;;;;;5094341;28;20088;-47
2023/09/24 06:51:27;;;;;;;7.53;6.00;;;11.40;94.80;;;;;;5094025;28;20024;-46
2023/09/24 06:53:55;;;;;;;9.75;5.95;;;11.40;94.90;;;;;;5077513;28;20048;-47
2023/09/24 06:56:22;;;;;;;10.45;6.40;;;11.40;94.90;;;;;;5085032;28;20024;-47
2023/09/24 06:58:54;;;;;;;8.10;5.40;;;11.50;94.90;;;;;;5073544;28;20040;-49
2023/09/24 07:01:20;;;;;;;8.80;5.60;;;11.60;94.90;;;;;;5066926;28;20032;-46
2023/09/24 07:03:48;;;;;;;14.20;6.38;;;11.60;94.90;;;;;;5072461;28;20039;-46
2023/09/24 07:06:17;;;;;;;9.27;6.10;;;11.60;94.90;;;;;;5074253;28;20081;-46
2023/09/24 07:08:44;;;;;;;6.22;5.20;;;11.70;94.90;;;;;;5085813;28;20028;-51
2023/09/24 07:11:31;;;;;;;7.70;5.07;;;11.70;95.00;;;;;;5089003;28;20154;-46
2023/09/24 07:13:58;;;;;;;7.82;5.95;;;11.80;95.00;;;;;;5072130;28;20051;-51
2023/09/24 07:16:26;;;;;;;8.75;5.38;;;11.80;95.00;;;;;;5086419;28;20032;-46
2023/09/24 07:18:54;;;;;;;8.68;5.55;;;11.90;95.00;;;;;;5062552;28;20341;-46
2023/09/24 07:21:21;;;;;;;7.78;4.85;;;11.90;95.00;;;;;;5085722;28;20039;-48
2023/09/24 07:23:51;;;;;;;10.40;5.97;;;12.00;95.10;;;;;;5073043;28;20020;-46
2023/09/24 07:26:17;;;;;;;;;;;12.10;95.10;;;;;;5073889;28;20039;-48
2023/09/24 07:28:45;;;;;;;7.60;5.90;;;12.20;95.00;;;;;;5073735;28;19912;-48
2023/09/24 07:31:22;;;;;;;7.18;5.60;;;12.30;95.00;;;;;;5081951;28;20047;-45
2023/09/24 07:33:51;;;;;;;10.77;5.90;;;12.40;94.90;;;;;;5074749;28;20709;-45
2023/09/24 07:36:18;;;;;;;9.93;5.57;;;12.70;94.90;;;;;;5089486;28;20032;-46
2023/09/24 07:38:45;;;;;;;8.43;5.22;;;12.90;94.60;;;;;;5056026;28;20040;-47
2023/09/24 07:41:11;;;;;;;7.35;5.00;;;13.00;94.30;;;;;;5055435;28;20343;-49
2023/09/24 07:43:41;;;;;;;6.47;5.32;;;13.40;94.10;;;;;;5072850;28;20031;-44
2023/09/24 07:46:14;;;;;;;9.18;4.82;;;13.70;93.80;;;;;;5078950;28;20538;-45
2023/09/24 07:48:50;;;;;;;6.68;5.55;;;13.70;92.50;;;;;;5092154;28;20039;-43
2023/09/24 07:51:19;;;;;;;7.75;5.00;;;13.90;91.90;;;;;;5084541;28;20047;-46
2023/09/24 07:53:50;;;;;;;7.75;4.70;;;14.20;91.10;;;;;;5091174;28;20040;-44
2023/09/24 07:56:17;;;;;;;7.18;3.97;;;14.40;89.90;;;;;;5093049;28;20361;-44
2023/09/24 07:58:45;;;;;;;7.70;4.50;;;14.50;89.50;;;;;;5076708;28;20458;-48
2023/09/24 08:01:13;;;;;;;5.72;4.00;;;14.60;88.40;;;;;;5077646;28;20099;-45
2023/09/24 08:03:45;;;;;;;7.78;4.43;;;14.80;88.30;;;;;;5093090;28;20353;-45
2023/09/24 08:06:12;;;;;;;7.80;4.57;;;15.00;88.30;;;;;;5081648;28;20123;-53
2023/09/24 08:08:41;;;;;;;9.13;3.60;;;15.30;87.80;;;;;;5072928;28;20190;-48
2023/09/24 08:11:06;;;;;;;5.32;3.63;;;15.40;87.20;;;;;;5075864;28;20066;-47
2023/09/24 08:13:37;;;;;;;6.07;4.15;;;15.50;87.20;;;;;;5079915;28;20029;-47
2023/09/24 08:16:04;;;;;;;5.68;4.00;;;15.70;86.40;;;;;;5078346;28;20016;-47
2023/09/24 08:18:32;;;;;;;7.10;3.80;;;15.60;85.60;;;;;;5092559;28;20107;-51
2023/09/24 08:21:02;;;;;;;5.35;3.05;;;15.50;85.40;;;;;;5079584;28;20036;-47
2023/09/24 08:23:29;;;;;;;6.40;3.95;;;15.60;86.20;;;;;;5072400;28;20461;-48
2023/09/24 08:25:57;;;;;;;6.63;3.58;;;15.80;85.20;;;;;;5074239;28;20071;-48
2023/09/24 08:28:22;;;;;;;8.30;4.57;;;15.90;85.60;;;;;;5073088;28;20115;-54
2023/09/24 08:30:49;;;;;;;10.27;4.60;;;16.00;84.30;;;;;;5072188;28;20115;-51
2023/09/24 08:33:19;;;;;;;5.97;4.68;;;16.00;83.40;;;;;;5072940;28;20039;-50
2023/09/24 08:35:45;;;;;;;4.90;4.18;;;16.20;83.30;;;;;;5072219;28;20060;-51
2023/09/24 08:38:13;;;;;;;6.95;4.82;;;16.20;82.90;;;;;;5072529;28;20067;-51
2023/09/24 08:40:40;;;;;;;5.20;4.35;;;16.10;83.40;;;;;;5059438;28;20135;-52
2023/09/24 08:43:20;;;;;;;5.55;4.35;;;16.40;83.70;;;;;;5078958;28;20036;-52
2023/09/24 08:45:48;;;;;;;6.43;5.50;;;16.30;81.60;;;;;;5084092;28;20024;-51
2023/09/24 08:48:14;;;;;;;7.20;4.32;;;16.20;82.50;;;;;;5095447;28;20039;-50
2023/09/24 08:50:46;;;;;;;6.70;5.22;;;16.10;82.70;;;;;;5094432;28;20021;-50
2023/09/24 08:53:16;;;;;;;5.72;4.60;;;16.10;83.20;;;;;;5076186;28;20107;-53
2023/09/24 08:55:45;;;;;;;6.10;5.22;;;16.10;82.10;;;;;;5083936;28;20020;-50
2023/09/24 08:58:12;;;;;;;6.50;5.65;;;16.10;82.30;;;;;;5095340;28;20047;-49
2023/09/24 09:00:42;;;;;;;6.60;5.57;;;16.20;82.10;;;;;;5076996;28;20020;-49
2023/09/24 09:03:09;;;;;;;8.43;5.13;;;16.20;82.50;;;;;;5096462;28;20032;-49
2023/09/24 09:05:38;;;;;;;6.88;5.07;;;16.30;82.20;;;;;;5086751;28;20414;-48
2023/09/24 09:08:04;;;;;;;7.72;6.40;;;16.20;81.90;;;;;;5087089;28;20052;-48
2023/09/24 09:10:34;;;;;;;6.95;5.68;;;16.30;80.50;;;;;;5095857;28;20475;-50
2023/09/24 09:13:21;;;;;;;6.50;5.80;;;16.30;81.50;;;;;;5096010;28;20032;-48
2023/09/24 09:16:08;;;;;;;7.90;5.40;;;16.20;82.30;;;;;;5081542;28;20028;-48
2023/09/24 09:18:38;;;;;;;8.50;6.03;;;16.30;81.20;;;;;;5096299;28;20085;-48
2023/09/24 09:21:04;;;;;;;13.52;6.57;;;16.40;82.00;;;;;;5089733;28;20039;-49
2023/09/24 09:23:43;;;;;;;8.32;5.22;;;16.40;81.40;;;;;;5090874;28;20028;-48
2023/09/24 09:26:11;;;;;;;;;;;16.60;81.60;;;;;;5095999;28;20110;-48
2023/09/24 09:28:38;;;;;;;7.00;5.72;;;16.50;80.60;;;;;;5095671;28;20337;-50
2023/09/24 09:31:12;;;;;;;7.25;6.18;;;16.70;81.00;;;;;;5091434;28;20081;-48
2023/09/24 09:33:45;;;;;;;11.00;7.95;;;16.80;81.50;;;;;;5095509;28;20028;-48
2023/09/24 09:36:27;;;;;;;8.65;7.32;;;16.90;79.80;;;;;;5080609;28;20042;-50
2023/09/24 09:38:58;;;;;;;8.80;7.13;;;16.80;80.10;;;;;;5074584;28;20031;-49
2023/09/24 09:41:25;;;;;;;6.70;6.00;;;16.90;80.40;;;;;;5083300;28;20099;-51
2023/09/24 09:44:03;;;;;;;8.60;7.60;;;17.20;81.30;;;;;;5078851;28;20032;-50
2023/09/24 09:46:35;;;;;;;7.65;6.95;;;17.40;78.80;;;;;;5083126;28;20048;-48
2023/09/24 09:49:11;;;;;;;8.25;7.32;;;17.50;79.10;;;;;;5094370;28;20028;-48
2023/09/24 09:51:45;;;;;;;12.82;7.43;;;17.20;78.60;;;;;;5092936;28;20036;-50
2023/09/24 09:54:13;;;;;;;8.13;7.32;;;17.30;79.30;;;;;;5094550;28;20053;-51
2023/09/24 09:56:42;;;;;;;11.18;8.80;;;17.40;79.60;;;;;;5077318;28;20032;-47
2023/09/24 09:59:09;;;;;;;11.00;7.68;;;17.40;78.50;;;;;;5095195;28;20520;-48
2023/09/24 10:01:39;;;;;;;10.32;9.27;;;17.70;79.70;;;;;;5084913;28;20028;-49
2023/09/24 10:04:07;;;;;;;8.90;8.00;;;17.60;76.80;;;;;;5076963;28;20070;-48
2023/09/24 10:06:37;;;;;;;8.48;7.20;;;17.60;77.20;;;;;;5094330;28;20737;-47
2023/09/24 10:09:50;;;;;;;9.73;7.72;;;17.50;76.90;;;;;;5076934;28;20035;-50
2023/09/24 10:12:36;;;;;;;14.23;7.65;;;17.50;76.20;;;;;;5094527;28;20020;-49
2023/09/24 10:15:40;;;;;;;11.50;6.90;;;17.70;76.80;;;;;;5056506;28;20033;-49
2023/09/24 10:18:11;;;;;;;6.95;6.25;;;17.90;76.50;;;;;;5090533;28;20027;-48
2023/09/24 10:20:58;;;;;;;8.63;6.13;;;17.90;76.60;;;;;;5086780;28;20151;-48
2023/09/24 10:23:42;;;;;;;8.13;6.35;;;17.90;76.00;;;;;;5086088;28;20040;-47
2023/09/24 10:26:49;;;;;;;8.55;6.80;;;17.90;75.40;;;;;;5084820;28;20016;-48
2023/09/24 10:29:19;;;;;;;8.98;6.22;;;17.90;76.20;;;;;;5074153;28;20461;-48
2023/09/24 10:32:14;;;;;;;9.75;6.63;;;17.90;76.50;;;;;;5059957;28;20154;-50
2023/09/24 10:35:06;;;;;;;9.45;6.63;;;18.00;74.70;;;;;;5074712;28;20036;-49
2023/09/24 10:37:34;;;;;;;7.13;5.78;;;18.00;74.80;;;;;;5076653;28;20333;-49
2023/09/24 10:40:09;;;;;;;11.18;6.47;;;18.10;76.30;;;;;;5076665;28;20118;-47
2023/09/24 10:42:43;;;;;;;8.45;6.35;;;18.10;75.60;;;;;;5074184;28;20028;-51
2023/09/24 10:45:14;;;;;;;7.63;5.93;;;18.10;74.10;;;;;;5053233;28;20361;-47
2023/09/24 10:47:45;;;;;;;10.20;6.35;;;18.10;75.00;;;;;;5093638;28;20032;-48
2023/09/24 10:50:23;;;;;;;9.40;6.55;;;18.20;74.70;;;;;;5093980;28;20042;-48
2023/09/24 10:53:06;;;;;;;8.77;6.22;;;18.10;74.60;;;;;;5093781;28;20345;-47
2023/09/24 10:55:42;;;;;;;9.13;5.93;;;18.20;75.40;;;;;;5080407;28;20078;-48
2023/09/24 10:58:28;;;;;;;9.55;5.75;;;18.20;73.50;;;;;;5089412;28;20413;-49
2023/09/24 11:00:54;;;;;;;8.80;4.90;;;18.20;73.20;;;;;;5073045;28;20346;-49
2023/09/24 11:03:21;;;;;;;10.40;6.70;;;18.20;72.50;;;;;;5073644;28;20036;-48
2023/09/24 11:05:54;;;;;;;10.82;6.93;;;18.10;73.00;;;;;;5073835;28;20392;-51
2023/09/24 11:08:28;;;;;;;8.30;5.82;;;18.10;74.20;;;;;;5085014;28;20039;-48
2023/09/24 11:10:54;;;;;;;11.27;6.35;;;18.20;73.50;;;;;;5093805;28;20453;-49
2023/09/24 11:13:25;;;;;;;9.95;6.13;;;18.20;74.40;;;;;;5082828;28;20120;-50
2023/09/24 11:15:52;;;;;;;7.45;4.55;;;18.30;74.50;;;;;;5072617;28;20043;-46
2023/09/24 11:18:19;;;;;;;7.10;4.05;;;18.30;70.30;;;;;;5084016;28;20118;-51
2023/09/24 11:20:50;;;;;;;9.52;4.70;;;18.40;70.90;;;;;;5092430;28;20048;-47
2023/09/24 11:23:16;;;;;;;9.18;3.63;;;18.50;70.90;;;;;;5058109;28;20024;-48
2023/09/24 11:25:48;;;;;;;7.45;3.42;;;18.60;69.00;;;;;;5073679;28;20368;-48
2023/09/24 11:28:30;;;;;;;6.57;3.13;;;18.70;69.10;;;;;;5084558;28;20626;-47
2023/09/24 11:31:01;;;;;;;7.35;3.28;;;18.40;67.30;;;;;;5093626;28;20051;-49
2023/09/24 11:33:27;;;;;;;7.90;3.05;;;18.60;68.50;;;;;;5092836;28;20361;-48
2023/09/24 11:35:57;;;;;;;7.80;3.10;;;18.60;68.90;;;;;;5090362;28;20033;-48
2023/09/24 11:38:40;;;;;;;6.75;2.47;;;18.60;68.20;;;;;;5073460;28;20039;-48
2023/09/24 11:41:23;;;;;;;6.55;2.75;;;18.60;67.80;;;;;;5061734;28;20109;-50
2023/09/24 11:44:09;;;;;;;7.78;2.33;;;18.50;66.30;;;;;;5085163;28;20377;-49
2023/09/24 11:46:38;;;;;;;6.95;2.55;;;18.50;66.60;;;;;;5073125;28;20024;-49
2023/09/24 11:49:11;;;;;;;8.15;2.35;;;18.50;67.30;;;;;;5086888;28;20051;-53
2023/09/24 11:51:39;;;;;;;14.98;2.88;;;18.40;66.50;;;;;;5082348;28;20028;-46
2023/09/24 11:54:06;;;;;;;4.80;2.25;;;18.60;64.00;;;;;;5054953;28;20036;-48
2023/09/24 11:56:33;;;;;;;7.05;1.98;;;18.60;63.90;;;;;;5055140;28;20111;-50
2023/09/24 11:59:01;;;;;;;6.45;2.15;;;18.80;65.10;;;;;;5085465;28;20028;-50
2023/09/24 12:01:29;;;;;;;6.18;2.50;;;18.90;64.70;;;;;;5093010;28;20491;-50
2023/09/24 12:03:54;;;;;;;7.45;2.47;;;19.00;64.40;;;;;;5087378;28;20028;-47
2023/09/24 12:06:21;;;;;;;6.13;2.40;;;18.90;62.20;;;;;;5093046;28;20021;-48
2023/09/24 12:08:48;;;;;;;5.53;2.13;;;18.90;62.70;;;;;;5075009;28;20432;-50
2023/09/24 12:11:21;;;;;;;7.63;2.03;;;18.80;63.40;;;;;;5090972;28;20028;-49
2023/09/24 12:13:46;;;;;;;6.93;2.35;;;18.80;64.20;;;;;;5092173;28;20318;-49
2023/09/24 12:16:14;;;;;;;7.10;2.83;;;18.90;64.90;;;;;;5084418;28;20031;-49
2023/09/24 12:18:40;;;;;;;6.07;2.15;;;18.90;63.20;;;;;;5073110;28;20059;-47
2023/09/24 12:21:09;;;;;;;5.00;2.22;;;18.80;63.40;;;;;;5072582;28;20033;-48
2023/09/24 12:23:36;;;;;;;7.15;1.92;;;18.70;62.30;;;;;;5073113;28;20041;-47
2023/09/24 12:26:03;;;;;;;6.57;2.55;;;18.70;63.40;;;;;;5054760;28;20056;-51
2023/09/24 12:28:32;;;;;;;5.00;2.03;;;18.60;61.60;;;;;;5079920;28;20457;-47
2023/09/24 12:30:59;;;;;;;7.00;1.95;;;18.60;63.00;;;;;;5092891;28;20028;-47
2023/09/24 12:33:27;;;;;;;6.43;1.92;;;18.70;61.30;;;;;;5082466;28;20234;-47
2023/09/24 12:35:56;;;;;;;6.45;2.15;;;18.80;61.80;;;;;;5092534;28;20449;-49
2023/09/24 12:38:24;;;;;;;8.43;2.15;;;18.80;61.30;;;;;;5077059;28;20158;-47
2023/09/24 12:40:51;;;;;;;4.30;2.33;;;18.60;60.10;;;;;;5077465;28;20046;-47
2023/09/24 12:43:18;;;;;;;4.85;2.05;;;18.60;60.20;;;;;;5072305;28;20525;-47
2023/09/24 12:45:45;;;;;;;6.97;2.17;;;18.50;59.90;;;;;;5072373;28;20412;-48
2023/09/24 12:48:12;;;;;;;4.20;2.03;;;18.50;61.40;;;;;;5072809;28;20035;-47
2023/09/24 12:50:41;;;;;;;5.60;1.98;;;18.50;60.80;;;;;;5085125;28;20063;-47
2023/09/24 12:53:08;;;;;;;5.80;2.00;;;18.50;62.30;;;;;;5071851;28;20052;-48
2023/09/24 12:55:34;;;;;;;4.80;2.47;;;18.50;61.30;;;;;;5072262;28;20462;-48
2023/09/24 12:58:01;;;;;;;6.47;1.88;;;18.50;61.10;;;;;;5072173;28;20099;-47
2023/09/24 13:00:29;;;;;;;5.03;1.73;;;18.40;61.90;;;;;;5090822;28;20028;-47
2023/09/24 13:02:55;;;;;;;6.07;2.20;;;18.30;62.00;;;;;;5081224;28;20020;-50